sensor_id;sensor_type;location;lat;lon;timestamp;pressure;altitude;pressure_sealevel;temperature;humidity
8298;BME280;4187;42.778;23.242;2023-06-10T00:01:40;94903.03;;;18.15;100.00
8298;BME280;4187;42.778;23.242;2023-06-10T00:04:08;94897.91;;;18.14;100.00
8298;BME280;4187;42.778;23.242;2023-06-10T00:06:35;94897.47;;;18.17;100.00
8298;BME280;4187;42.778;23.242;2023-06-10T00:09:03;94889.63;;;18.02;100.00
8298;BME280;4187;42.778;23.242;2023-06-10T00:11:31;94891.66;;;17.93;100.00
8298;BME280;4187;42.778;23.242;2023-06-10T00:13:58;94896.53;;;17.83;100.00
8298;BME280;4187;42.778;23.242;2023-06-10T00:16:25;94893.00;;;17.76;100.00
8298;BME280;4187;42.778;23.242;2023-06-10T00:18:54;94894.81;;;17.69;100.00
8298;BME280;4187;42.778;23.242;2023-06-10T00:21:27;94891.09;;;17.64;100.00
8298;BME280;4187;42.778;23.242;2023-06-10T00:23:55;94879.75;;;17.55;100.00
8298;BME280;4187;42.778;23.242;2023-06-10T00:26:22;94883.88;;;17.58;100.00
8298;BME280;4187;42.778;23.242;2023-06-10T00:28:49;94895.19;;;17.60;100.00
8298;BME280;4187;42.778;23.242;2023-06-10T00:31:16;94874.75;;;17.46;100.00
8298;BME280;4187;42.778;23.242;2023-06-10T00:33:43;94829.38;;;17.11;100.00
8298;BME280;4187;42.778;23.242;2023-06-10T00:36:11;94900.22;;;17.48;100.00
8298;BME280;4187;42.778;23.242;2023-06-10T00:38:38;94888.66;;;17.41;100.00
8298;BME280;4187;42.778;23.242;2023-06-10T00:41:05;94898.56;;;17.47;100.00
8298;BME280;4187;42.778;23.242;2023-06-10T00:43:32;94886.03;;;17.48;100.00
8298;BME280;4187;42.778;23.242;2023-06-10T00:45:59;94896.19;;;17.59;100.00
8298;BME280;4187;42.778;23.242;2023-06-10T00:48:27;94926.69;;;17.77;100.00
8298;BME280;4187;42.778;23.242;2023-06-10T00:50:55;94926.06;;;17.75;100.00
8298;BME280;4187;42.778;23.242;2023-06-10T00:53:23;94916.16;;;17.69;100.00
8298;BME280;4187;42.778;23.242;2023-06-10T00:55:50;94918.63;;;17.71;100.00
8298;BME280;4187;42.778;23.242;2023-06-10T00:58:17;94926.69;;;17.77;100.00
8298;BME280;4187;42.778;23.242;2023-06-10T01:00:44;94920.16;;;17.86;100.00
8298;BME280;4187;42.778;23.242;2023-06-10T01:03:12;94923.84;;;17.85;100.00
8298;BME280;4187;42.778;23.242;2023-06-10T01:05:38;94924.91;;;17.91;100.00
8298;BME280;4187;42.778;23.242;2023-06-10T01:08:09;94897.94;;;17.73;100.00
8298;BME280;4187;42.778;23.242;2023-06-10T01:10:50;94922.84;;;17.93;100.00
8298;BME280;4187;42.778;23.242;2023-06-10T01:13:22;94921.00;;;17.93;100.00
8298;BME280;4187;42.778;23.242;2023-06-10T01:15:50;94922.91;;;18.00;100.00
8298;BME280;4187;42.778;23.242;2023-06-10T01:18:18;94917.75;;;17.98;100.00
8298;BME280;4187;42.778;23.242;2023-06-10T01:20:45;94915.91;;;17.99;100.00
8298;BME280;4187;42.778;23.242;2023-06-10T01:23:15;94905.38;;;17.90;100.00
8298;BME280;4187;42.778;23.242;2023-06-10T01:25:59;94909.56;;;18.06;100.00
8298;BME280;4187;42.778;23.242;2023-06-10T01:28:31;94908.97;;;18.11;100.00
8298;BME280;4187;42.778;23.242;2023-06-10T01:31:03;94908.16;;;18.10;100.00
8298;BME280;4187;42.778;23.242;2023-06-10T01:33:37;94897.25;;;18.05;100.00
8298;BME280;4187;42.778;23.242;2023-06-10T01:36:06;94905.44;;;18.04;100.00
8298;BME280;4187;42.778;23.242;2023-06-10T01:38:40;94899.88;;;17.99;100.00
8298;BME280;4187;42.778;23.242;2023-06-10T01:41:09;94894.09;;;17.88;100.00
8298;BME280;4187;42.778;23.242;2023-06-10T01:43:37;94896.94;;;17.87;100.00
8298;BME280;4187;42.778;23.242;2023-06-10T01:46:04;94894.28;;;17.87;100.00
8298;BME280;4187;42.778;23.242;2023-06-10T01:48:31;94890.81;;;17.86;100.00
8298;BME280;4187;42.778;23.242;2023-06-10T01:50:58;94895.59;;;17.98;100.00
8298;BME280;4187;42.778;23.242;2023-06-10T01:53:25;94895.59;;;17.98;100.00
8298;BME280;4187;42.778;23.242;2023-06-10T01:55:53;94888.81;;;18.02;100.00
8298;BME280;4187;42.778;23.242;2023-06-10T01:58:20;94879.56;;;17.98;100.00
8298;BME280;4187;42.778;23.242;2023-06-10T02:00:47;94887.34;;;17.99;100.00
8298;BME280;4187;42.778;23.242;2023-06-10T02:03:14;94877.06;;;17.89;100.00
8298;BME280;4187;42.778;23.242;2023-06-10T02:05:41;94880.34;;;17.91;100.00
8298;BME280;4187;42.778;23.242;2023-06-10T02:08:07;94889.00;;;18.00;100.00
8298;BME280;4187;42.778;23.242;2023-06-10T02:10:34;94886.13;;;18.02;100.00
8298;BME280;4187;42.778;23.242;2023-06-10T02:13:03;94881.63;;;18.09;100.00
8298;BME280;4187;42.778;23.242;2023-06-10T02:15:30;94860.03;;;17.97;100.00
8298;BME280;4187;42.778;23.242;2023-06-10T02:17:56;94880.19;;;18.00;100.00
8298;BME280;4187;42.778;23.242;2023-06-10T02:20:23;94881.97;;;17.92;100.00
8298;BME280;4187;42.778;23.242;2023-06-10T02:22:50;94882.63;;;17.95;100.00
8298;BME280;4187;42.778;23.242;2023-06-10T02:25:17;94866.22;;;17.98;100.00
8298;BME280;4187;42.778;23.242;2023-06-10T02:27:44;94878.97;;;18.09;100.00
8298;BME280;4187;42.778;23.242;2023-06-10T02:30:13;94852.59;;;17.86;100.00
8298;BME280;4187;42.778;23.242;2023-06-10T02:32:41;94877.06;;;17.89;100.00
8298;BME280;4187;42.778;23.242;2023-06-10T02:35:08;94867.56;;;17.80;100.00
8298;BME280;4187;42.778;23.242;2023-06-10T02:37:37;94875.19;;;17.83;100.00
8298;BME280;4187;42.778;23.242;2023-06-10T02:40:05;94884.25;;;17.89;100.00
8298;BME280;4187;42.778;23.242;2023-06-10T02:42:32;94881.81;;;17.94;100.00
8298;BME280;4187;42.778;23.242;2023-06-10T02:44:59;94883.25;;;17.97;100.00
8298;BME280;4187;42.778;23.242;2023-06-10T02:47:28;94880.56;;;17.97;100.00
8298;BME280;4187;42.778;23.242;2023-06-10T02:49:55;94881.19;;;17.99;100.00
8298;BME280;4187;42.778;23.242;2023-06-10T02:52:21;94877.72;;;18.05;100.00
8298;BME280;4187;42.778;23.242;2023-06-10T02:54:48;94885.34;;;18.14;100.00
8298;BME280;4187;42.778;23.242;2023-06-10T02:57:15;94870.53;;;18.05;100.00
8298;BME280;4187;42.778;23.242;2023-06-10T02:59:42;94878.16;;;18.15;100.00
8298;BME280;4187;42.778;23.242;2023-06-10T03:02:08;94885.56;;;18.13;100.00
8298;BME280;4187;42.778;23.242;2023-06-10T03:04:38;94883.31;;;18.16;100.00
8298;BME280;4187;42.778;23.242;2023-06-10T03:07:04;94882.47;;;18.09;100.00
8298;BME280;4187;42.778;23.242;2023-06-10T03:09:32;94892.75;;;18.12;100.00
8298;BME280;4187;42.778;23.242;2023-06-10T03:11:59;94897.06;;;18.13;100.00
8298;BME280;4187;42.778;23.242;2023-06-10T03:14:27;94897.06;;;18.13;100.00
8298;BME280;4187;42.778;23.242;2023-06-10T03:16:53;94904.66;;;18.10;100.00
8298;BME280;4187;42.778;23.242;2023-06-10T03:19:21;94887.16;;;18.01;100.00
8298;BME280;4187;42.778;23.242;2023-06-10T03:22:08;94900.09;;;18.04;100.00
8298;BME280;4187;42.778;23.242;2023-06-10T03:24:35;94898.66;;;18.01;100.00
8298;BME280;4187;42.778;23.242;2023-06-10T03:27:06;94900.75;;;18.06;100.00
8298;BME280;4187;42.778;23.242;2023-06-10T03:29:33;94905.03;;;18.07;100.00
8298;BME280;4187;42.778;23.242;2023-06-10T03:32:00;94899.53;;;18.08;100.00
8298;BME280;4187;42.778;23.242;2023-06-10T03:34:27;94900.75;;;18.12;100.00
8298;BME280;4187;42.778;23.242;2023-06-10T03:36:56;94900.97;;;18.11;100.00
8298;BME280;4187;42.778;23.242;2023-06-10T03:39:23;94898.28;;;18.11;100.00
8298;BME280;4187;42.778;23.242;2023-06-10T03:41:50;94889.84;;;18.07;100.00
8298;BME280;4187;42.778;23.242;2023-06-10T03:44:17;94890.69;;;18.08;100.00
8298;BME280;4187;42.778;23.242;2023-06-10T03:46:44;94865.97;;;17.92;100.00
8298;BME280;4187;42.778;23.242;2023-06-10T03:49:11;94896.69;;;18.16;100.00
8298;BME280;4187;42.778;23.242;2023-06-10T03:51:38;94895.44;;;18.19;100.00
8298;BME280;4187;42.778;23.242;2023-06-10T03:54:06;94893.78;;;18.18;100.00
8298;BME280;4187;42.778;23.242;2023-06-10T03:56:33;94884.75;;;18.19;100.00
8298;BME280;4187;42.778;23.242;2023-06-10T03:58:59;94894.84;;;18.23;100.00
8298;BME280;4187;42.778;23.242;2023-06-10T04:01:26;94892.16;;;18.23;100.00
8298;BME280;4187;42.778;23.242;2023-06-10T04:03:53;94889.28;;;18.25;100.00
8298;BME280;4187;42.778;23.242;2023-06-10T04:06:20;94866.03;;;18.12;100.00
8298;BME280;4187;42.778;23.242;2023-06-10T04:08:48;94897.94;;;18.27;100.00
8298;BME280;4187;42.778;23.242;2023-06-10T04:11:16;94904.94;;;18.34;100.00
8298;BME280;4187;42.778;23.242;2023-06-10T04:13:43;94889.09;;;18.26;100.00
8298;BME280;4187;42.778;23.242;2023-06-10T04:16:09;94894.03;;;18.36;100.00
8298;BME280;4187;42.778;23.242;2023-06-10T04:18:37;94897.97;;;18.40;100.00
8298;BME280;4187;42.778;23.242;2023-06-10T04:21:04;94889.94;;;18.33;100.00
8298;BME280;4187;42.778;23.242;2023-06-10T04:23:31;94903.50;;;18.32;100.00
8298;BME280;4187;42.778;23.242;2023-06-10T04:25:58;94896.09;;;18.27;100.00
8298;BME280;4187;42.778;23.242;2023-06-10T04:28:27;94902.47;;;18.33;100.00
8298;BME280;4187;42.778;23.242;2023-06-10T04:30:54;94884.97;;;18.24;100.00
8298;BME280;4187;42.778;23.242;2023-06-10T04:33:21;94897.00;;;18.47;100.00
8298;BME280;4187;42.778;23.242;2023-06-10T04:35:48;94904.81;;;18.49;100.00
8298;BME280;4187;42.778;23.242;2023-06-10T04:38:15;94900.69;;;18.53;100.00
8298;BME280;4187;42.778;23.242;2023-06-10T04:40:42;94902.16;;;18.56;100.00
8298;BME280;4187;42.778;23.242;2023-06-10T04:43:08;94902.97;;;18.56;100.00
8298;BME280;4187;42.778;23.242;2023-06-10T04:45:37;94899.28;;;18.57;100.00
8298;BME280;4187;42.778;23.242;2023-06-10T04:48:04;94902.16;;;18.56;100.00
8298;BME280;4187;42.778;23.242;2023-06-10T04:50:31;94897.63;;;18.56;100.00
8298;BME280;4187;42.778;23.242;2023-06-10T04:52:58;94897.22;;;18.59;100.00
8298;BME280;4187;42.778;23.242;2023-06-10T04:55:25;94901.34;;;18.62;100.00
8298;BME280;4187;42.778;23.242;2023-06-10T04:57:52;94872.94;;;18.47;100.00
8298;BME280;4187;42.778;23.242;2023-06-10T05:00:18;94893.31;;;18.62;100.00
8298;BME280;4187;42.778;23.242;2023-06-10T05:02:47;94904.19;;;18.60;100.00
8298;BME280;4187;42.778;23.242;2023-06-10T05:05:15;94894.16;;;18.62;100.00
8298;BME280;4187;42.778;23.242;2023-06-10T05:07:42;94897.00;;;18.54;100.00
8298;BME280;4187;42.778;23.242;2023-06-10T05:10:10;94901.94;;;18.50;100.00
8298;BME280;4187;42.778;23.242;2023-06-10T05:12:38;94899.28;;;18.57;100.00
8298;BME280;4187;42.778;23.242;2023-06-10T05:15:06;94902.78;;;18.64;100.00
8298;BME280;4187;42.778;23.242;2023-06-10T05:17:33;94914.50;;;18.63;100.00
8298;BME280;4187;42.778;23.242;2023-06-10T05:20:01;94897.63;;;18.63;100.00
8298;BME280;4187;42.778;23.242;2023-06-10T05:22:28;94902.78;;;18.64;100.00
8298;BME280;4187;42.778;23.242;2023-06-10T05:24:55;94910.41;;;18.67;100.00
8298;BME280;4187;42.778;23.242;2023-06-10T05:27:22;94920.69;;;18.70;100.00
8298;BME280;4187;42.778;23.242;2023-06-10T05:29:50;94916.75;;;18.66;100.00
8298;BME280;4187;42.778;23.242;2023-06-10T05:32:17;94918.00;;;18.70;100.00
8298;BME280;4187;42.778;23.242;2023-06-10T05:34:44;94929.34;;;18.79;100.00
8298;BME280;4187;42.778;23.242;2023-06-10T05:37:12;94897.03;;;18.80;100.00
8298;BME280;4187;42.778;23.242;2023-06-10T05:39:39;94919.91;;;19.02;100.00
8298;BME280;4187;42.778;23.242;2023-06-10T05:42:07;94908.56;;;19.07;100.00
8298;BME280;4187;42.778;23.242;2023-06-10T05:44:34;94924.63;;;19.20;100.00
8298;BME280;4187;42.778;23.242;2023-06-10T05:47:01;94923.59;;;19.28;100.00
8298;BME280;4187;42.778;23.242;2023-06-10T05:49:28;94925.25;;;19.42;100.00
8298;BME280;4187;42.778;23.242;2023-06-10T05:51:55;94924.66;;;19.46;100.00
8298;BME280;4187;42.778;23.242;2023-06-10T05:54:25;94918.88;;;19.49;100.00
8298;BME280;4187;42.778;23.242;2023-06-10T05:56:52;94914.94;;;19.52;100.00
8298;BME280;4187;42.778;23.242;2023-06-10T05:59:19;94914.13;;;19.58;100.00
8298;BME280;4187;42.778;23.242;2023-06-10T06:01:48;94919.88;;;19.61;100.00
8298;BME280;4187;42.778;23.242;2023-06-10T06:04:15;94930.38;;;19.63;100.00
8298;BME280;4187;42.778;23.242;2023-06-10T06:06:42;94930.38;;;19.63;100.00
8298;BME280;4187;42.778;23.242;2023-06-10T06:09:09;94934.50;;;19.59;100.00
8298;BME280;4187;42.778;23.242;2023-06-10T06:11:37;94927.09;;;19.61;100.00
8298;BME280;4187;42.778;23.242;2023-06-10T06:14:04;94928.53;;;19.63;100.00
8298;BME280;4187;42.778;23.242;2023-06-10T06:16:31;94937.38;;;19.71;100.00
8298;BME280;4187;42.778;23.242;2023-06-10T06:18:57;94933.44;;;19.80;100.00
8298;BME280;4187;42.778;23.242;2023-06-10T06:21:24;94940.22;;;19.89;100.00
8298;BME280;4187;42.778;23.242;2023-06-10T06:23:51;94936.91;;;20.00;100.00
8298;BME280;4187;42.778;23.242;2023-06-10T06:26:19;94945.53;;;20.08;100.00
8298;BME280;4187;42.778;23.242;2023-06-10T06:28:47;94943.00;;;20.20;100.00
8298;BME280;4187;42.778;23.242;2023-06-10T06:31:14;94946.28;;;20.35;100.00
8298;BME280;4187;42.778;23.242;2023-06-10T06:33:41;94932.06;;;20.35;100.00
8298;BME280;4187;42.778;23.242;2023-06-10T06:36:08;94946.22;;;20.48;100.00
8298;BME280;4187;42.778;23.242;2023-06-10T06:38:35;94945.81;;;20.45;100.00
8298;BME280;4187;42.778;23.242;2023-06-10T06:41:01;94936.16;;;20.44;100.00
8298;BME280;4187;42.778;23.242;2023-06-10T06:43:31;94924.69;;;20.61;100.00
8298;BME280;4187;42.778;23.242;2023-06-10T06:45:59;94929.97;;;20.74;100.00
8298;BME280;4187;42.778;23.242;2023-06-10T06:48:26;94936.75;;;20.83;100.00
8298;BME280;4187;42.778;23.242;2023-06-10T06:50:53;94923.69;;;20.87;100.00
8298;BME280;4187;42.778;23.242;2023-06-10T06:53:21;94927.56;;;20.98;100.00
8298;BME280;4187;42.778;23.242;2023-06-10T06:55:48;94936.00;;;21.08;100.00
8298;BME280;4187;42.778;23.242;2023-06-10T06:58:15;94925.97;;;21.21;100.00
8298;BME280;4187;42.778;23.242;2023-06-10T07:00:42;94932.06;;;21.35;100.00
8298;BME280;4187;42.778;23.242;2023-06-10T07:03:10;94933.59;;;21.49;100.00
8298;BME280;4187;42.778;23.242;2023-06-10T07:05:37;94933.53;;;21.56;100.00
8298;BME280;4187;42.778;23.242;2023-06-10T07:08:05;94931.06;;;21.54;100.00
8298;BME280;4187;42.778;23.242;2023-06-10T07:10:31;94928.53;;;21.59;100.00
8298;BME280;4187;42.778;23.242;2023-06-10T07:12:59;94919.66;;;21.59;100.00
8298;BME280;4187;42.778;23.242;2023-06-10T07:15:25;94939.53;;;21.76;100.00
8298;BME280;4187;42.778;23.242;2023-06-10T07:17:52;94933.63;;;21.92;100.00
8298;BME280;4187;42.778;23.242;2023-06-10T07:20:20;94932.50;;;22.18;100.00
8298;BME280;4187;42.778;23.242;2023-06-10T07:22:47;94928.38;;;22.33;100.00
8298;BME280;4187;42.778;23.242;2023-06-10T07:25:14;94939.00;;;22.46;100.00
8298;BME280;4187;42.778;23.242;2023-06-10T07:27:42;94930.63;;;22.54;100.00
8298;BME280;4187;42.778;23.242;2023-06-10T07:30:09;94932.91;;;22.69;100.00
8298;BME280;4187;42.778;23.242;2023-06-10T07:32:36;94931.59;;;22.90;100.00
8298;BME280;4187;42.778;23.242;2023-06-10T07:35:06;94932.81;;;23.05;100.00
8298;BME280;4187;42.778;23.242;2023-06-10T07:37:34;94926.41;;;23.18;100.00
8298;BME280;4187;42.778;23.242;2023-06-10T07:40:01;94921.41;;;23.33;100.00
8298;BME280;4187;42.778;23.242;2023-06-10T07:42:28;94929.09;;;23.59;100.00
8298;BME280;4187;42.778;23.242;2023-06-10T07:44:55;94934.25;;;23.72;100.00
8298;BME280;4187;42.778;23.242;2023-06-10T07:47:22;94924.63;;;23.88;100.00
8298;BME280;4187;42.778;23.242;2023-06-10T07:49:49;94929.44;;;24.09;100.00
8298;BME280;4187;42.778;23.242;2023-06-10T07:52:15;94936.56;;;24.27;100.00
8298;BME280;4187;42.778;23.242;2023-06-10T07:54:44;94927.59;;;24.50;100.00
8298;BME280;4187;42.778;23.242;2023-06-10T07:57:10;94925.16;;;24.76;100.00
8298;BME280;4187;42.778;23.242;2023-06-10T07:59:37;94929.94;;;24.98;100.00
8298;BME280;4187;42.778;23.242;2023-06-10T08:02:05;94924.69;;;25.08;100.00
8298;BME280;4187;42.778;23.242;2023-06-10T08:04:32;94927.00;;;25.16;100.00
8298;BME280;4187;42.778;23.242;2023-06-10T08:07:00;94925.22;;;25.21;100.00
8298;BME280;4187;42.778;23.242;2023-06-10T08:09:27;94898.03;;;25.28;100.00
8298;BME280;4187;42.778;23.242;2023-06-10T08:11:56;94920.03;;;25.48;100.00
8298;BME280;4187;42.778;23.242;2023-06-10T08:14:23;94911.50;;;25.56;100.00
8298;BME280;4187;42.778;23.242;2023-06-10T08:16:50;94904.16;;;25.68;100.00
8298;BME280;4187;42.778;23.242;2023-06-10T08:19:16;94913.31;;;25.67;100.00
8298;BME280;4187;42.778;23.242;2023-06-10T08:21:43;94917.56;;;25.63;100.00
8298;BME280;4187;42.778;23.242;2023-06-10T08:24:10;94914.13;;;25.51;99.83
8298;BME280;4187;42.778;23.242;2023-06-10T08:26:38;94906.66;;;25.25;99.59
8298;BME280;4187;42.778;23.242;2023-06-10T08:29:06;94907.56;;;24.85;100.00
8298;BME280;4187;42.778;23.242;2023-06-10T08:31:33;94897.53;;;24.58;100.00
8298;BME280;4187;42.778;23.242;2023-06-10T08:34:00;94893.91;;;24.52;100.00
8298;BME280;4187;42.778;23.242;2023-06-10T08:36:27;94907.94;;;24.66;98.51
8298;BME280;4187;42.778;23.242;2023-06-10T08:38:54;94895.84;;;24.80;100.00
8298;BME280;4187;42.778;23.242;2023-06-10T08:41:24;94891.47;;;25.07;100.00
8298;BME280;4187;42.778;23.242;2023-06-10T08:43:59;94889.19;;;25.16;98.71
8298;BME280;4187;42.778;23.242;2023-06-10T08:46:31;94881.59;;;25.13;97.93
8298;BME280;4187;42.778;23.242;2023-06-10T08:49:00;94888.13;;;25.33;98.26
8298;BME280;4187;42.778;23.242;2023-06-10T08:51:30;94884.81;;;25.60;97.50
8298;BME280;4187;42.778;23.242;2023-06-10T08:54:02;94890.34;;;25.86;99.15
8298;BME280;4187;42.778;23.242;2023-06-10T08:56:32;94881.50;;;26.12;96.35
8298;BME280;4187;42.778;23.242;2023-06-10T08:59:02;94885.84;;;26.30;95.46
8298;BME280;4187;42.778;23.242;2023-06-10T09:01:30;94891.41;;;25.85;93.16
8298;BME280;4187;42.778;23.242;2023-06-10T09:03:58;94841.22;;;25.39;93.90
8298;BME280;4187;42.778;23.242;2023-06-10T09:06:26;94871.81;;;25.57;91.78
8298;BME280;4187;42.778;23.242;2023-06-10T09:08:53;94863.38;;;25.53;93.16
8298;BME280;4187;42.778;23.242;2023-06-10T09:11:20;94856.97;;;25.59;95.91
8298;BME280;4187;42.778;23.242;2023-06-10T09:13:47;94868.41;;;25.83;94.87
8298;BME280;4187;42.778;23.242;2023-06-10T09:16:17;94866.06;;;26.08;93.53
8298;BME280;4187;42.778;23.242;2023-06-10T09:18:45;94870.63;;;26.46;91.74
8298;BME280;4187;42.778;23.242;2023-06-10T09:21:12;94865.06;;;26.79;90.72
8298;BME280;4187;42.778;23.242;2023-06-10T09:23:39;94858.00;;;27.05;90.49
8298;BME280;4187;42.778;23.242;2023-06-10T09:26:11;94843.22;;;26.91;83.66
8298;BME280;4187;42.778;23.242;2023-06-10T09:28:38;94830.19;;;26.88;81.71
8298;BME280;4187;42.778;23.242;2023-06-10T09:31:06;94846.97;;;27.11;87.25
8298;BME280;4187;42.778;23.242;2023-06-10T09:33:36;94844.72;;;27.35;85.39
8298;BME280;4187;42.778;23.242;2023-06-10T09:36:07;94843.34;;;27.33;82.52
8298;BME280;4187;42.778;23.242;2023-06-10T09:38:36;94848.19;;;27.30;82.84
8298;BME280;4187;42.778;23.242;2023-06-10T09:41:06;94851.56;;;27.11;82.82
8298;BME280;4187;42.778;23.242;2023-06-10T09:43:41;94846.63;;;27.03;85.25
8298;BME280;4187;42.778;23.242;2023-06-10T09:46:14;94822.78;;;27.05;87.49
8298;BME280;4187;42.778;23.242;2023-06-10T09:48:42;94813.91;;;27.41;89.09
8298;BME280;4187;42.778;23.242;2023-06-10T09:51:11;94832.16;;;27.98;88.49
8298;BME280;4187;42.778;23.242;2023-06-10T09:53:38;94833.97;;;28.34;87.42
8298;BME280;4187;42.778;23.242;2023-06-10T09:56:06;94839.81;;;28.63;82.83
8298;BME280;4187;42.778;23.242;2023-06-10T09:58:36;94799.00;;;28.58;80.64
8298;BME280;4187;42.778;23.242;2023-06-10T10:01:08;94827.09;;;29.03;85.06
8298;BME280;4187;42.778;23.242;2023-06-10T10:03:43;94820.88;;;29.18;83.30
8298;BME280;4187;42.778;23.242;2023-06-10T10:06:12;94779.81;;;28.69;77.61
8298;BME280;4187;42.778;23.242;2023-06-10T10:08:39;94826.84;;;28.90;76.18
8298;BME280;4187;42.778;23.242;2023-06-10T10:11:06;94828.69;;;28.64;77.91
8298;BME280;4187;42.778;23.242;2023-06-10T10:13:34;94817.53;;;28.66;79.88
8298;BME280;4187;42.778;23.242;2023-06-10T10:16:04;94813.94;;;28.50;76.86
8298;BME280;4187;42.778;23.242;2023-06-10T10:18:31;94811.91;;;28.10;79.10
8298;BME280;4187;42.778;23.242;2023-06-10T10:21:01;94812.25;;;27.82;79.30
8298;BME280;4187;42.778;23.242;2023-06-10T10:23:40;94803.28;;;27.76;79.53
8298;BME280;4187;42.778;23.242;2023-06-10T10:26:10;94798.09;;;28.17;83.44
8298;BME280;4187;42.778;23.242;2023-06-10T10:28:41;94790.31;;;28.45;80.46
8298;BME280;4187;42.778;23.242;2023-06-10T10:31:15;94796.69;;;28.81;81.80
8298;BME280;4187;42.778;23.242;2023-06-10T10:33:54;94801.03;;;29.08;80.28
8298;BME280;4187;42.778;23.242;2023-06-10T10:36:22;94797.22;;;29.03;75.50
8298;BME280;4187;42.778;23.242;2023-06-10T10:38:51;94802.09;;;28.91;75.17
8298;BME280;4187;42.778;23.242;2023-06-10T10:41:19;94796.13;;;28.84;74.46
8298;BME280;4187;42.778;23.242;2023-06-10T10:43:46;94789.31;;;28.72;77.66
8298;BME280;4187;42.778;23.242;2023-06-10T10:46:16;94791.50;;;28.85;76.60
8298;BME280;4187;42.778;23.242;2023-06-10T10:48:44;94789.34;;;28.92;76.84
8298;BME280;4187;42.778;23.242;2023-06-10T10:51:11;94778.19;;;28.88;75.31
8298;BME280;4187;42.778;23.242;2023-06-10T10:53:41;94792.59;;;28.94;76.06
8298;BME280;4187;42.778;23.242;2023-06-10T10:56:15;94788.53;;;28.96;74.47
8298;BME280;4187;42.778;23.242;2023-06-10T10:59:02;94779.84;;;29.10;75.18
8298;BME280;4187;42.778;23.242;2023-06-10T11:01:39;94778.22;;;29.19;76.94
8298;BME280;4187;42.778;23.242;2023-06-10T11:04:09;94779.88;;;29.30;76.26
8298;BME280;4187;42.778;23.242;2023-06-10T11:06:36;94779.31;;;29.43;75.57
8298;BME280;4187;42.778;23.242;2023-06-10T11:09:25;94773.88;;;29.48;75.27
8298;BME280;4187;42.778;23.242;2023-06-10T11:11:56;94764.34;;;29.45;74.83
8298;BME280;4187;42.778;23.242;2023-06-10T11:14:26;94764.91;;;29.57;72.21
8298;BME280;4187;42.778;23.242;2023-06-10T11:16:56;94753.47;;;29.50;72.45
8298;BME280;4187;42.778;23.242;2023-06-10T11:19:33;94759.44;;;29.57;70.94
8298;BME280;4187;42.778;23.242;2023-06-10T11:22:01;94754.84;;;29.48;68.62
8298;BME280;4187;42.778;23.242;2023-06-10T11:24:29;94750.50;;;29.12;69.60
8298;BME280;4187;42.778;23.242;2023-06-10T11:27:14;94743.44;;;28.80;75.73
8298;BME280;4187;42.778;23.242;2023-06-10T11:29:55;94735.81;;;28.82;74.01
8298;BME280;4187;42.778;23.242;2023-06-10T11:32:22;94741.53;;;28.71;72.27
8298;BME280;4187;42.778;23.242;2023-06-10T11:34:52;94736.88;;;28.71;76.19
8298;BME280;4187;42.778;23.242;2023-06-10T11:37:20;94731.97;;;28.58;74.49
8298;BME280;4187;42.778;23.242;2023-06-10T11:39:51;94737.44;;;28.63;76.40
8298;BME280;4187;42.778;23.242;2023-06-10T11:42:20;94726.00;;;28.51;70.79
8298;BME280;4187;42.778;23.242;2023-06-10T11:44:48;94733.31;;;28.40;72.24
8298;BME280;4187;42.778;23.242;2023-06-10T11:47:16;94735.16;;;28.25;70.32
8298;BME280;4187;42.778;23.242;2023-06-10T11:49:43;94729.97;;;28.18;72.87
8298;BME280;4187;42.778;23.242;2023-06-10T11:52:10;94727.88;;;28.35;74.55
8298;BME280;4187;42.778;23.242;2023-06-10T11:54:37;94725.50;;;28.79;75.62
8298;BME280;4187;42.778;23.242;2023-06-10T11:57:04;94721.44;;;28.87;66.66
8298;BME280;4187;42.778;23.242;2023-06-10T11:59:34;94720.59;;;29.06;66.93
8298;BME280;4187;42.778;23.242;2023-06-10T12:02:01;94723.59;;;29.35;73.11
8298;BME280;4187;42.778;23.242;2023-06-10T12:04:28;94726.81;;;29.62;69.01
8298;BME280;4187;42.778;23.242;2023-06-10T12:06:55;94723.75;;;29.74;66.99
8298;BME280;4187;42.778;23.242;2023-06-10T12:09:23;94730.28;;;29.88;67.86
8298;BME280;4187;42.778;23.242;2023-06-10T12:11:51;94731.06;;;29.94;66.78
8298;BME280;4187;42.778;23.242;2023-06-10T12:14:51;94721.31;;;29.83;65.96
8298;BME280;4187;42.778;23.242;2023-06-10T12:17:21;94723.22;;;29.82;66.38
8298;BME280;4187;42.778;23.242;2023-06-10T12:19:48;94716.41;;;29.80;65.39
8298;BME280;4187;42.778;23.242;2023-06-10T12:22:15;94719.69;;;29.72;65.23
8298;BME280;4187;42.778;23.242;2023-06-10T12:24:45;94719.97;;;29.70;66.86
8298;BME280;4187;42.778;23.242;2023-06-10T12:27:12;94715.06;;;29.72;63.62
8298;BME280;4187;42.778;23.242;2023-06-10T12:29:39;94705.84;;;29.58;65.90
8298;BME280;4187;42.778;23.242;2023-06-10T12:32:19;94714.31;;;29.56;64.87
8298;BME280;4187;42.778;23.242;2023-06-10T12:34:48;94710.22;;;29.54;64.43
8298;BME280;4187;42.778;23.242;2023-06-10T12:37:16;94705.63;;;29.54;64.96
8298;BME280;4187;42.778;23.242;2023-06-10T12:39:51;94705.06;;;29.47;63.98
8298;BME280;4187;42.778;23.242;2023-06-10T12:42:21;94688.28;;;29.30;62.83
8298;BME280;4187;42.778;23.242;2023-06-10T12:44:53;94705.94;;;29.28;64.60
8298;BME280;4187;42.778;23.242;2023-06-10T12:47:29;94717.63;;;29.13;63.69
8298;BME280;4187;42.778;23.242;2023-06-10T12:49:57;94713.00;;;28.98;64.87
8298;BME280;4187;42.778;23.242;2023-06-10T12:52:24;94715.19;;;28.91;66.12
8298;BME280;4187;42.778;23.242;2023-06-10T12:54:51;94718.69;;;28.72;67.91
8298;BME280;4187;42.778;23.242;2023-06-10T12:57:18;94722.44;;;28.51;68.16
8298;BME280;4187;42.778;23.242;2023-06-10T12:59:45;94727.81;;;28.20;76.06
8298;BME280;4187;42.778;23.242;2023-06-10T13:02:17;94717.66;;;27.02;82.04
8298;BME280;4187;42.778;23.242;2023-06-10T13:04:46;94711.97;;;25.48;90.33
8298;BME280;4187;42.778;23.242;2023-06-10T13:07:13;94709.09;;;24.50;94.44
8298;BME280;4187;42.778;23.242;2023-06-10T13:09:40;94741.41;;;24.05;97.54
8298;BME280;4187;42.778;23.242;2023-06-10T13:12:07;94742.31;;;23.42;97.72